Terminal Aerodrome Forecast
Issued by NWS

Home | Current Version | Previous Version | Text Only | Print | Product List | Glossary Off
Versions: 1 2 3 4 5 6 7 8 9 10 11 12 13 14 15 16 17 18 19

000
FTUS41 KCLE 121020 AAB
TAFFDY
TAF AMD
KFDY 121020Z 1210/1306 32014G22KT P6SM SCT015 OVC035
      TEMPO 1210/1212 3SM -SN BKN015
     FM121200 31015G25KT P6SM OVC025
     FM121800 31018G28KT P6SM OVC035=

USA.gov is the U.S. government's official web portal to all federal, state and local government web resources and services.